sensor_id;sensor_type;location;lat;lon;timestamp;P1;durP1;ratioP1;P2;durP2;ratioP2
77350;SDS011;66420;50.246;14.320;2024-03-23T00:51:49;13.68;;;7.30;;
77350;SDS011;66420;50.246;14.320;2024-03-23T00:54:34;16.30;;;8.55;;
77350;SDS011;66420;50.246;14.320;2024-03-23T00:57:19;16.48;;;8.82;;
77350;SDS011;66420;50.246;14.320;2024-03-23T01:00:04;16.95;;;7.95;;
77350;SDS011;66420;50.246;14.320;2024-03-23T01:02:50;14.73;;;7.93;;
77350;SDS011;66420;50.246;14.320;2024-03-23T01:05:35;14.48;;;8.07;;
77350;SDS011;66420;50.246;14.320;2024-03-23T01:08:20;15.65;;;7.80;;
77350;SDS011;66420;50.246;14.320;2024-03-23T01:11:04;16.85;;;8.07;;
77350;SDS011;66420;50.246;14.320;2024-03-23T01:13:49;14.32;;;8.27;;
77350;SDS011;66420;50.246;14.320;2024-03-23T01:16:34;13.38;;;7.55;;
77350;SDS011;66420;50.246;14.320;2024-03-23T01:19:19;16.02;;;8.35;;
77350;SDS011;66420;50.246;14.320;2024-03-23T01:22:04;13.18;;;7.32;;
77350;SDS011;66420;50.246;14.320;2024-03-23T01:24:49;15.75;;;7.78;;
77350;SDS011;66420;50.246;14.320;2024-03-23T01:27:33;14.10;;;7.90;;
77350;SDS011;66420;50.246;14.320;2024-03-23T01:30:18;14.07;;;8.02;;
77350;SDS011;66420;50.246;14.320;2024-03-23T01:33:03;12.63;;;8.13;;
77350;SDS011;66420;50.246;14.320;2024-03-23T01:35:48;15.18;;;8.02;;
77350;SDS011;66420;50.246;14.320;2024-03-23T01:38:33;14.10;;;8.05;;
77350;SDS011;66420;50.246;14.320;2024-03-23T01:41:18;11.45;;;6.90;;
77350;SDS011;66420;50.246;14.320;2024-03-23T01:44:04;16.35;;;8.65;;
77350;SDS011;66420;50.246;14.320;2024-03-23T01:46:51;19.45;;;8.75;;
77350;SDS011;66420;50.246;14.320;2024-03-23T01:49:36;13.05;;;7.82;;
77350;SDS011;66420;50.246;14.320;2024-03-23T01:52:21;13.57;;;8.02;;
77350;SDS011;66420;50.246;14.320;2024-03-23T01:55:05;16.40;;;8.38;;
77350;SDS011;66420;50.246;14.320;2024-03-23T01:57:51;14.40;;;8.15;;
77350;SDS011;66420;50.246;14.320;2024-03-23T02:00:36;13.90;;;7.88;;
77350;SDS011;66420;50.246;14.320;2024-03-23T02:03:22;12.52;;;7.13;;
77350;SDS011;66420;50.246;14.320;2024-03-23T02:06:10;15.65;;;8.35;;
77350;SDS011;66420;50.246;14.320;2024-03-23T02:08:55;15.65;;;9.15;;
77350;SDS011;66420;50.246;14.320;2024-03-23T02:11:40;15.27;;;8.52;;
77350;SDS011;66420;50.246;14.320;2024-03-23T02:14:25;14.90;;;7.85;;
77350;SDS011;66420;50.246;14.320;2024-03-23T02:17:10;14.35;;;8.32;;
77350;SDS011;66420;50.246;14.320;2024-03-23T02:19:55;15.68;;;8.45;;
77350;SDS011;66420;50.246;14.320;2024-03-23T02:22:40;14.98;;;8.35;;
77350;SDS011;66420;50.246;14.320;2024-03-23T02:25:24;16.15;;;8.13;;
77350;SDS011;66420;50.246;14.320;2024-03-23T02:28:09;13.32;;;8.20;;
77350;SDS011;66420;50.246;14.320;2024-03-23T02:30:54;13.90;;;7.88;;
77350;SDS011;66420;50.246;14.320;2024-03-23T02:33:38;15.07;;;7.95;;
77350;SDS011;66420;50.246;14.320;2024-03-23T02:36:23;14.48;;;8.60;;
77350;SDS011;66420;50.246;14.320;2024-03-23T02:39:08;14.55;;;8.02;;
77350;SDS011;66420;50.246;14.320;2024-03-23T02:41:53;16.20;;;8.52;;
77350;SDS011;66420;50.246;14.320;2024-03-23T02:44:38;16.10;;;8.07;;
77350;SDS011;66420;50.246;14.320;2024-03-23T02:47:23;16.27;;;8.48;;
77350;SDS011;66420;50.246;14.320;2024-03-23T02:50:08;17.67;;;8.32;;
77350;SDS011;66420;50.246;14.320;2024-03-23T02:52:56;14.50;;;8.07;;
77350;SDS011;66420;50.246;14.320;2024-03-23T02:55:41;16.80;;;8.63;;
77350;SDS011;66420;50.246;14.320;2024-03-23T02:58:25;16.30;;;8.65;;
77350;SDS011;66420;50.246;14.320;2024-03-23T03:01:10;15.68;;;8.63;;
77350;SDS011;66420;50.246;14.320;2024-03-23T03:03:54;17.17;;;9.13;;
77350;SDS011;66420;50.246;14.320;2024-03-23T03:06:39;13.57;;;8.05;;
77350;SDS011;66420;50.246;14.320;2024-03-23T03:09:25;15.30;;;7.88;;
77350;SDS011;66420;50.246;14.320;2024-03-23T03:12:10;18.42;;;9.15;;
77350;SDS011;66420;50.246;14.320;2024-03-23T03:14:54;17.75;;;8.85;;
77350;SDS011;66420;50.246;14.320;2024-03-23T03:17:39;14.75;;;8.65;;
77350;SDS011;66420;50.246;14.320;2024-03-23T03:20:24;14.50;;;8.15;;
77350;SDS011;66420;50.246;14.320;2024-03-23T03:23:10;19.38;;;8.65;;
77350;SDS011;66420;50.246;14.320;2024-03-23T03:25:54;14.88;;;8.20;;
77350;SDS011;66420;50.246;14.320;2024-03-23T03:28:40;13.25;;;8.05;;
77350;SDS011;66420;50.246;14.320;2024-03-23T03:31:24;16.05;;;8.52;;
77350;SDS011;66420;50.246;14.320;2024-03-23T03:34:09;12.38;;;7.43;;
77350;SDS011;66420;50.246;14.320;2024-03-23T03:36:53;15.70;;;8.52;;
77350;SDS011;66420;50.246;14.320;2024-03-23T03:39:38;13.10;;;7.35;;
77350;SDS011;66420;50.246;14.320;2024-03-23T03:42:22;12.30;;;7.38;;
77350;SDS011;66420;50.246;14.320;2024-03-23T03:45:07;14.70;;;8.15;;
77350;SDS011;66420;50.246;14.320;2024-03-23T03:47:52;14.07;;;7.88;;
77350;SDS011;66420;50.246;14.320;2024-03-23T03:50:37;15.98;;;8.60;;
77350;SDS011;66420;50.246;14.320;2024-03-23T03:53:21;15.18;;;8.23;;
77350;SDS011;66420;50.246;14.320;2024-03-23T03:56:06;12.98;;;7.30;;
77350;SDS011;66420;50.246;14.320;2024-03-23T03:58:51;13.68;;;8.02;;
77350;SDS011;66420;50.246;14.320;2024-03-23T04:01:36;13.98;;;8.18;;
77350;SDS011;66420;50.246;14.320;2024-03-23T04:04:20;14.82;;;7.60;;
77350;SDS011;66420;50.246;14.320;2024-03-23T04:07:06;15.10;;;7.63;;
77350;SDS011;66420;50.246;14.320;2024-03-23T04:09:51;13.77;;;7.82;;
77350;SDS011;66420;50.246;14.320;2024-03-23T04:12:36;13.93;;;7.60;;
77350;SDS011;66420;50.246;14.320;2024-03-23T04:15:21;13.63;;;7.43;;
77350;SDS011;66420;50.246;14.320;2024-03-23T04:18:05;14.95;;;7.88;;
77350;SDS011;66420;50.246;14.320;2024-03-23T04:20:51;16.00;;;8.70;;
77350;SDS011;66420;50.246;14.320;2024-03-23T04:23:36;13.20;;;7.55;;
77350;SDS011;66420;50.246;14.320;2024-03-23T04:26:20;15.02;;;7.95;;
77350;SDS011;66420;50.246;14.320;2024-03-23T04:29:05;13.48;;;7.60;;
77350;SDS011;66420;50.246;14.320;2024-03-23T04:31:50;13.90;;;8.25;;
77350;SDS011;66420;50.246;14.320;2024-03-23T04:34:35;16.88;;;8.20;;
77350;SDS011;66420;50.246;14.320;2024-03-23T04:37:20;16.77;;;8.10;;
77350;SDS011;66420;50.246;14.320;2024-03-23T04:40:05;13.90;;;8.30;;
77350;SDS011;66420;50.246;14.320;2024-03-23T04:42:51;15.10;;;8.32;;
77350;SDS011;66420;50.246;14.320;2024-03-23T04:45:36;14.80;;;7.78;;
77350;SDS011;66420;50.246;14.320;2024-03-23T04:48:21;14.10;;;8.30;;
77350;SDS011;66420;50.246;14.320;2024-03-23T04:51:10;14.98;;;8.20;;
77350;SDS011;66420;50.246;14.320;2024-03-23T04:53:56;16.48;;;9.13;;
77350;SDS011;66420;50.246;14.320;2024-03-23T04:56:41;14.75;;;8.77;;
77350;SDS011;66420;50.246;14.320;2024-03-23T04:59:26;17.30;;;8.40;;
77350;SDS011;66420;50.246;14.320;2024-03-23T05:02:11;14.63;;;8.90;;
77350;SDS011;66420;50.246;14.320;2024-03-23T05:04:56;14.70;;;8.60;;
77350;SDS011;66420;50.246;14.320;2024-03-23T05:07:41;14.00;;;7.80;;
77350;SDS011;66420;50.246;14.320;2024-03-23T05:10:26;15.20;;;8.35;;
77350;SDS011;66420;50.246;14.320;2024-03-23T05:13:12;16.80;;;7.95;;
77350;SDS011;66420;50.246;14.320;2024-03-23T05:15:57;15.27;;;8.55;;
77350;SDS011;66420;50.246;14.320;2024-03-23T05:18:42;14.13;;;7.80;;
77350;SDS011;66420;50.246;14.320;2024-03-23T05:21:27;14.88;;;8.30;;
77350;SDS011;66420;50.246;14.320;2024-03-23T05:24:15;14.77;;;8.43;;
77350;SDS011;66420;50.246;14.320;2024-03-23T05:27:00;15.02;;;7.90;;
77350;SDS011;66420;50.246;14.320;2024-03-23T05:29:45;14.40;;;7.88;;
77350;SDS011;66420;50.246;14.320;2024-03-23T05:32:29;16.40;;;8.10;;
77350;SDS011;66420;50.246;14.320;2024-03-23T05:35:14;13.48;;;8.68;;
77350;SDS011;66420;50.246;14.320;2024-03-23T05:38:00;15.40;;;8.23;;
77350;SDS011;66420;50.246;14.320;2024-03-23T05:40:52;16.55;;;7.97;;
77350;SDS011;66420;50.246;14.320;2024-03-23T05:43:46;15.85;;;8.38;;
77350;SDS011;66420;50.246;14.320;2024-03-23T05:46:30;13.48;;;7.75;;
77350;SDS011;66420;50.246;14.320;2024-03-23T05:49:16;15.77;;;8.48;;
77350;SDS011;66420;50.246;14.320;2024-03-23T05:52:02;13.68;;;7.63;;
77350;SDS011;66420;50.246;14.320;2024-03-23T05:54:47;15.50;;;9.25;;
77350;SDS011;66420;50.246;14.320;2024-03-23T05:57:32;16.65;;;8.90;;
77350;SDS011;66420;50.246;14.320;2024-03-23T06:00:17;18.02;;;10.40;;
77350;SDS011;66420;50.246;14.320;2024-03-23T06:03:02;15.57;;;8.60;;
77350;SDS011;66420;50.246;14.320;2024-03-23T06:05:46;20.13;;;11.02;;
77350;SDS011;66420;50.246;14.320;2024-03-23T06:08:31;23.65;;;11.82;;
77350;SDS011;66420;50.246;14.320;2024-03-23T06:11:15;24.83;;;13.15;;
77350;SDS011;66420;50.246;14.320;2024-03-23T06:14:00;21.67;;;11.23;;
77350;SDS011;66420;50.246;14.320;2024-03-23T06:16:44;18.08;;;10.38;;
77350;SDS011;66420;50.246;14.320;2024-03-23T06:19:29;21.95;;;10.10;;
77350;SDS011;66420;50.246;14.320;2024-03-23T06:22:13;19.38;;;10.85;;
77350;SDS011;66420;50.246;14.320;2024-03-23T06:24:59;18.00;;;9.95;;
77350;SDS011;66420;50.246;14.320;2024-03-23T06:27:44;21.40;;;10.73;;
77350;SDS011;66420;50.246;14.320;2024-03-23T06:30:28;20.10;;;11.02;;
77350;SDS011;66420;50.246;14.320;2024-03-23T06:33:14;18.33;;;10.48;;
77350;SDS011;66420;50.246;14.320;2024-03-23T06:35:59;17.17;;;9.65;;
77350;SDS011;66420;50.246;14.320;2024-03-23T06:38:43;23.67;;;11.95;;
77350;SDS011;66420;50.246;14.320;2024-03-23T06:41:29;16.40;;;9.02;;
77350;SDS011;66420;50.246;14.320;2024-03-23T06:44:14;17.52;;;9.73;;
77350;SDS011;66420;50.246;14.320;2024-03-23T06:46:58;17.85;;;9.13;;
77350;SDS011;66420;50.246;14.320;2024-03-23T06:49:43;18.52;;;10.00;;
77350;SDS011;66420;50.246;14.320;2024-03-23T06:52:28;19.88;;;10.88;;
77350;SDS011;66420;50.246;14.320;2024-03-23T06:55:12;19.23;;;10.23;;
77350;SDS011;66420;50.246;14.320;2024-03-23T06:57:57;20.70;;;11.20;;
77350;SDS011;66420;50.246;14.320;2024-03-23T07:00:42;17.23;;;10.40;;
77350;SDS011;66420;50.246;14.320;2024-03-23T07:03:27;24.45;;;11.73;;
77350;SDS011;66420;50.246;14.320;2024-03-23T07:06:12;21.08;;;10.68;;
77350;SDS011;66420;50.246;14.320;2024-03-23T07:08:57;20.55;;;10.73;;
77350;SDS011;66420;50.246;14.320;2024-03-23T07:11:42;19.80;;;10.98;;
77350;SDS011;66420;50.246;14.320;2024-03-23T07:14:27;18.23;;;10.02;;
77350;SDS011;66420;50.246;14.320;2024-03-23T07:17:11;15.52;;;8.75;;
77350;SDS011;66420;50.246;14.320;2024-03-23T07:19:56;18.63;;;8.50;;
77350;SDS011;66420;50.246;14.320;2024-03-23T07:22:41;19.60;;;7.90;;
77350;SDS011;66420;50.246;14.320;2024-03-23T07:25:25;13.38;;;7.90;;
77350;SDS011;66420;50.246;14.320;2024-03-23T07:28:11;14.20;;;7.90;;
77350;SDS011;66420;50.246;14.320;2024-03-23T07:31:08;16.08;;;7.78;;
77350;SDS011;66420;50.246;14.320;2024-03-23T07:33:54;13.45;;;7.70;;
77350;SDS011;66420;50.246;14.320;2024-03-23T07:36:39;16.15;;;8.52;;
77350;SDS011;66420;50.246;14.320;2024-03-23T07:39:24;14.10;;;8.55;;
77350;SDS011;66420;50.246;14.320;2024-03-23T07:42:11;12.15;;;7.05;;
77350;SDS011;66420;50.246;14.320;2024-03-23T07:44:57;14.02;;;7.18;;
77350;SDS011;66420;50.246;14.320;2024-03-23T07:47:42;10.85;;;6.10;;
77350;SDS011;66420;50.246;14.320;2024-03-23T07:50:26;9.95;;;5.03;;
77350;SDS011;66420;50.246;14.320;2024-03-23T07:53:11;9.52;;;5.43;;
77350;SDS011;66420;50.246;14.320;2024-03-23T07:56:06;8.20;;;4.82;;
77350;SDS011;66420;50.246;14.320;2024-03-23T07:58:52;7.15;;;3.90;;
77350;SDS011;66420;50.246;14.320;2024-03-23T08:01:37;7.65;;;3.33;;
77350;SDS011;66420;50.246;14.320;2024-03-23T08:04:21;5.97;;;3.55;;
77350;SDS011;66420;50.246;14.320;2024-03-23T08:07:06;6.93;;;3.88;;
77350;SDS011;66420;50.246;14.320;2024-03-23T08:09:51;7.55;;;3.58;;
77350;SDS011;66420;50.246;14.320;2024-03-23T08:12:36;5.68;;;3.45;;
77350;SDS011;66420;50.246;14.320;2024-03-23T08:15:21;8.77;;;3.97;;
77350;SDS011;66420;50.246;14.320;2024-03-23T08:18:06;6.32;;;3.72;;
77350;SDS011;66420;50.246;14.320;2024-03-23T08:23:41;10.02;;;4.00;;
77350;SDS011;66420;50.246;14.320;2024-03-23T08:26:26;9.10;;;3.65;;
77350;SDS011;66420;50.246;14.320;2024-03-23T08:29:10;6.43;;;3.65;;
77350;SDS011;66420;50.246;14.320;2024-03-23T08:31:55;6.28;;;3.88;;
77350;SDS011;66420;50.246;14.320;2024-03-23T08:34:40;8.77;;;3.58;;
77350;SDS011;66420;50.246;14.320;2024-03-23T08:37:24;6.60;;;3.47;;
77350;SDS011;66420;50.246;14.320;2024-03-23T08:40:09;6.45;;;3.20;;
77350;SDS011;66420;50.246;14.320;2024-03-23T08:42:54;6.68;;;3.67;;
77350;SDS011;66420;50.246;14.320;2024-03-23T08:45:39;5.50;;;3.22;;
77350;SDS011;66420;50.246;14.320;2024-03-23T08:48:23;7.80;;;3.58;;
77350;SDS011;66420;50.246;14.320;2024-03-23T08:51:08;6.05;;;3.67;;
77350;SDS011;66420;50.246;14.320;2024-03-23T08:53:53;7.00;;;3.78;;
77350;SDS011;66420;50.246;14.320;2024-03-23T08:56:38;6.38;;;3.70;;
77350;SDS011;66420;50.246;14.320;2024-03-23T08:59:22;8.25;;;3.70;;
77350;SDS011;66420;50.246;14.320;2024-03-23T09:02:08;6.95;;;3.80;;
77350;SDS011;66420;50.246;14.320;2024-03-23T09:04:52;7.28;;;4.00;;
77350;SDS011;66420;50.246;14.320;2024-03-23T09:07:37;7.90;;;3.85;;
77350;SDS011;66420;50.246;14.320;2024-03-23T09:10:22;8.57;;;3.97;;
77350;SDS011;66420;50.246;14.320;2024-03-23T09:13:07;8.23;;;4.03;;
77350;SDS011;66420;50.246;14.320;2024-03-23T09:15:52;7.57;;;4.00;;
77350;SDS011;66420;50.246;14.320;2024-03-23T09:18:40;7.05;;;4.00;;
77350;SDS011;66420;50.246;14.320;2024-03-23T09:21:25;8.20;;;3.97;;
77350;SDS011;66420;50.246;14.320;2024-03-23T09:24:09;6.10;;;3.75;;
77350;SDS011;66420;50.246;14.320;2024-03-23T09:26:54;11.13;;;3.95;;
77350;SDS011;66420;50.246;14.320;2024-03-23T09:29:39;6.20;;;3.92;;
77350;SDS011;66420;50.246;14.320;2024-03-23T09:32:24;8.73;;;3.20;;
77350;SDS011;66420;50.246;14.320;2024-03-23T09:35:08;7.00;;;3.00;;
77350;SDS011;66420;50.246;14.320;2024-03-23T09:37:53;7.28;;;2.78;;
77350;SDS011;66420;50.246;14.320;2024-03-23T09:40:42;5.00;;;2.90;;
77350;SDS011;66420;50.246;14.320;2024-03-23T09:43:27;5.57;;;2.38;;
77350;SDS011;66420;50.246;14.320;2024-03-23T09:46:12;4.07;;;2.90;;
77350;SDS011;66420;50.246;14.320;2024-03-23T09:48:57;4.90;;;2.90;;
77350;SDS011;66420;50.246;14.320;2024-03-23T09:51:42;6.93;;;3.28;;
77350;SDS011;66420;50.246;14.320;2024-03-23T09:54:26;4.72;;;2.92;;
77350;SDS011;66420;50.246;14.320;2024-03-23T09:57:11;5.93;;;3.15;;
77350;SDS011;66420;50.246;14.320;2024-03-23T09:59:56;5.95;;;3.17;;
77350;SDS011;66420;50.246;14.320;2024-03-23T10:02:42;6.70;;;3.40;;
77350;SDS011;66420;50.246;14.320;2024-03-23T10:05:27;7.35;;;3.05;;
77350;SDS011;66420;50.246;14.320;2024-03-23T10:11:15;5.25;;;2.92;;
77350;SDS011;66420;50.246;14.320;2024-03-23T10:14:00;10.38;;;3.50;;
77350;SDS011;66420;50.246;14.320;2024-03-23T10:16:45;5.32;;;3.05;;
77350;SDS011;66420;50.246;14.320;2024-03-23T10:19:31;5.03;;;2.80;;
77350;SDS011;66420;50.246;14.320;2024-03-23T10:22:20;9.55;;;3.30;;
77350;SDS011;66420;50.246;14.320;2024-03-23T10:25:09;5.63;;;2.72;;
77350;SDS011;66420;50.246;14.320;2024-03-23T10:27:58;5.72;;;3.03;;
77350;SDS011;66420;50.246;14.320;2024-03-23T10:30:44;5.57;;;2.85;;
77350;SDS011;66420;50.246;14.320;2024-03-23T10:33:29;5.30;;;3.22;;
77350;SDS011;66420;50.246;14.320;2024-03-23T10:36:15;7.00;;;3.25;;
77350;SDS011;66420;50.246;14.320;2024-03-23T10:39:00;6.95;;;3.40;;
77350;SDS011;66420;50.246;14.320;2024-03-23T10:41:45;4.78;;;3.10;;
77350;SDS011;66420;50.246;14.320;2024-03-23T10:44:31;6.50;;;3.00;;
77350;SDS011;66420;50.246;14.320;2024-03-23T10:47:16;6.47;;;3.58;;
77350;SDS011;66420;50.246;14.320;2024-03-23T10:50:02;4.82;;;3.03;;
77350;SDS011;66420;50.246;14.320;2024-03-23T10:52:49;6.63;;;2.95;;
77350;SDS011;66420;50.246;14.320;2024-03-23T10:55:37;6.05;;;3.47;;
77350;SDS011;66420;50.246;14.320;2024-03-23T10:58:30;7.05;;;3.53;;
77350;SDS011;66420;50.246;14.320;2024-03-23T11:01:17;5.38;;;3.30;;
77350;SDS011;66420;50.246;14.320;2024-03-23T11:04:03;5.75;;;3.30;;
77350;SDS011;66420;50.246;14.320;2024-03-23T11:06:47;5.22;;;3.08;;
77350;SDS011;66420;50.246;14.320;2024-03-23T11:15:13;7.05;;;3.00;;
77350;SDS011;66420;50.246;14.320;2024-03-23T11:18:02;5.95;;;3.00;;
77350;SDS011;66420;50.246;14.320;2024-03-23T11:20:52;10.52;;;3.47;;
77350;SDS011;66420;50.246;14.320;2024-03-23T11:23:37;8.70;;;3.25;;
77350;SDS011;66420;50.246;14.320;2024-03-23T11:26:22;12.60;;;3.75;;
77350;SDS011;66420;50.246;14.320;2024-03-23T11:29:13;7.78;;;3.55;;
77350;SDS011;66420;50.246;14.320;2024-03-23T11:31:59;7.72;;;2.90;;
77350;SDS011;66420;50.246;14.320;2024-03-23T11:34:46;6.18;;;2.63;;
77350;SDS011;66420;50.246;14.320;2024-03-23T11:37:30;12.65;;;2.65;;
77350;SDS011;66420;50.246;14.320;2024-03-23T11:40:18;4.38;;;2.10;;
77350;SDS011;66420;50.246;14.320;2024-03-23T11:43:07;4.53;;;1.92;;
77350;SDS011;66420;50.246;14.320;2024-03-23T11:45:56;2.90;;;1.55;;
77350;SDS011;66420;50.246;14.320;2024-03-23T11:48:49;2.50;;;1.58;;
77350;SDS011;66420;50.246;14.320;2024-03-23T11:51:34;6.35;;;1.38;;
77350;SDS011;66420;50.246;14.320;2024-03-23T11:54:20;3.20;;;1.40;;
77350;SDS011;66420;50.246;14.320;2024-03-23T11:57:08;2.88;;;1.40;;
77350;SDS011;66420;50.246;14.320;2024-03-23T11:59:52;2.90;;;1.48;;
77350;SDS011;66420;50.246;14.320;2024-03-23T12:02:37;3.00;;;1.20;;
77350;SDS011;66420;50.246;14.320;2024-03-23T12:05:22;5.00;;;1.30;;
77350;SDS011;66420;50.246;14.320;2024-03-23T12:11:05;3.97;;;1.00;;
77350;SDS011;66420;50.246;14.320;2024-03-23T12:13:50;1.42;;;0.80;;
77350;SDS011;66420;50.246;14.320;2024-03-23T12:16:36;2.50;;;0.95;;
77350;SDS011;66420;50.246;14.320;2024-03-23T12:19:20;1.17;;;0.50;;
77350;SDS011;66420;50.246;14.320;2024-03-23T12:22:05;0.93;;;0.45;;
77350;SDS011;66420;50.246;14.320;2024-03-23T12:24:51;2.83;;;0.50;;
77350;SDS011;66420;50.246;14.320;2024-03-23T12:27:36;2.38;;;0.90;;
77350;SDS011;66420;50.246;14.320;2024-03-23T12:30:20;2.33;;;0.70;;
77350;SDS011;66420;50.246;14.320;2024-03-23T12:33:05;3.78;;;0.90;;
77350;SDS011;66420;50.246;14.320;2024-03-23T12:35:50;2.85;;;0.43;;
77350;SDS011;66420;50.246;14.320;2024-03-23T12:38:37;0.52;;;0.40;;
77350;SDS011;66420;50.246;14.320;2024-03-23T12:41:21;0.60;;;0.40;;
77350;SDS011;66420;50.246;14.320;2024-03-23T12:44:07;0.43;;;0.40;;
77350;SDS011;66420;50.246;14.320;2024-03-23T12:46:56;0.45;;;0.30;;
77350;SDS011;66420;50.246;14.320;2024-03-23T12:49:40;1.60;;;0.35;;
77350;SDS011;66420;50.246;14.320;2024-03-23T12:52:25;0.50;;;0.40;;
77350;SDS011;66420;50.246;14.320;2024-03-23T12:55:12;0.82;;;0.40;;
77350;SDS011;66420;50.246;14.320;2024-03-23T12:57:57;0.68;;;0.50;;
77350;SDS011;66420;50.246;14.320;2024-03-23T13:00:41;0.50;;;0.40;;
77350;SDS011;66420;50.246;14.320;2024-03-23T13:03:26;2.08;;;0.52;;
77350;SDS011;66420;50.246;14.320;2024-03-23T13:06:10;1.30;;;0.52;;
77350;SDS011;66420;50.246;14.320;2024-03-23T13:08:55;2.17;;;0.57;;
77350;SDS011;66420;50.246;14.320;2024-03-23T13:11:39;0.57;;;0.30;;
77350;SDS011;66420;50.246;14.320;2024-03-23T13:14:24;1.55;;;0.40;;
77350;SDS011;66420;50.246;14.320;2024-03-23T13:17:08;0.85;;;0.43;;
77350;SDS011;66420;50.246;14.320;2024-03-23T13:19:54;2.13;;;0.38;;
77350;SDS011;66420;50.246;14.320;2024-03-23T13:22:40;0.40;;;0.40;;
77350;SDS011;66420;50.246;14.320;2024-03-23T13:25:25;1.05;;;0.50;;
77350;SDS011;66420;50.246;14.320;2024-03-23T13:28:09;0.63;;;0.50;;
77350;SDS011;66420;50.246;14.320;2024-03-23T13:30:55;1.20;;;0.60;;
77350;SDS011;66420;50.246;14.320;2024-03-23T13:33:40;1.15;;;0.40;;
77350;SDS011;66420;50.246;14.320;2024-03-23T13:36:28;0.47;;;0.43;;
77350;SDS011;66420;50.246;14.320;2024-03-23T13:39:13;1.35;;;0.30;;
77350;SDS011;66420;50.246;14.320;2024-03-23T13:41:58;1.02;;;0.50;;
77350;SDS011;66420;50.246;14.320;2024-03-23T13:44:43;0.80;;;0.40;;
77350;SDS011;66420;50.246;14.320;2024-03-23T13:47:27;0.60;;;0.50;;
77350;SDS011;66420;50.246;14.320;2024-03-23T13:50:12;1.35;;;0.68;;
77350;SDS011;66420;50.246;14.320;2024-03-23T13:52:57;2.67;;;0.70;;
77350;SDS011;66420;50.246;14.320;2024-03-23T13:55:48;1.20;;;0.70;;
77350;SDS011;66420;50.246;14.320;2024-03-23T13:58:33;2.15;;;0.70;;
77350;SDS011;66420;50.246;14.320;2024-03-23T14:01:17;1.70;;;0.82;;
77350;SDS011;66420;50.246;14.320;2024-03-23T14:04:03;1.27;;;0.73;;
77350;SDS011;66420;50.246;14.320;2024-03-23T14:06:48;1.55;;;0.80;;
77350;SDS011;66420;50.246;14.320;2024-03-23T14:09:33;1.77;;;1.00;;
77350;SDS011;66420;50.246;14.320;2024-03-23T14:12:18;1.15;;;0.70;;
77350;SDS011;66420;50.246;14.320;2024-03-23T14:15:05;1.25;;;0.70;;
77350;SDS011;66420;50.246;14.320;2024-03-23T14:17:50;2.03;;;0.60;;
77350;SDS011;66420;50.246;14.320;2024-03-23T14:20:35;1.10;;;0.70;;
77350;SDS011;66420;50.246;14.320;2024-03-23T14:23:20;1.50;;;0.75;;
77350;SDS011;66420;50.246;14.320;2024-03-23T14:26:05;1.10;;;0.60;;
77350;SDS011;66420;50.246;14.320;2024-03-23T14:28:50;1.08;;;0.60;;
77350;SDS011;66420;50.246;14.320;2024-03-23T14:31:34;0.82;;;0.57;;
77350;SDS011;66420;50.246;14.320;2024-03-23T14:34:19;2.28;;;0.68;;
77350;SDS011;66420;50.246;14.320;2024-03-23T14:37:04;1.40;;;0.68;;
77350;SDS011;66420;50.246;14.320;2024-03-23T14:39:49;1.63;;;0.70;;
77350;SDS011;66420;50.246;14.320;2024-03-23T14:42:34;2.83;;;0.80;;
77350;SDS011;66420;50.246;14.320;2024-03-23T14:45:19;3.80;;;0.70;;
77350;SDS011;66420;50.246;14.320;2024-03-23T14:48:04;3.60;;;0.90;;
77350;SDS011;66420;50.246;14.320;2024-03-23T14:50:55;1.17;;;0.80;;
77350;SDS011;66420;50.246;14.320;2024-03-23T14:53:41;1.95;;;1.00;;
77350;SDS011;66420;50.246;14.320;2024-03-23T14:56:29;0.73;;;0.50;;
77350;SDS011;66420;50.246;14.320;2024-03-23T14:59:13;1.95;;;0.70;;
77350;SDS011;66420;50.246;14.320;2024-03-23T15:01:58;1.52;;;0.77;;
77350;SDS011;66420;50.246;14.320;2024-03-23T15:04:43;4.10;;;0.80;;
77350;SDS011;66420;50.246;14.320;2024-03-23T15:07:28;2.28;;;0.80;;
77350;SDS011;66420;50.246;14.320;2024-03-23T15:10:12;2.58;;;0.93;;
77350;SDS011;66420;50.246;14.320;2024-03-23T15:12:57;4.10;;;1.30;;
77350;SDS011;66420;50.246;14.320;2024-03-23T15:15:43;6.40;;;2.70;;
77350;SDS011;66420;50.246;14.320;2024-03-23T15:18:29;2.05;;;0.93;;
77350;SDS011;66420;50.246;14.320;2024-03-23T15:21:14;2.00;;;1.20;;
77350;SDS011;66420;50.246;14.320;2024-03-23T15:24:04;3.03;;;1.10;;
77350;SDS011;66420;50.246;14.320;2024-03-23T15:26:49;3.80;;;0.90;;
77350;SDS011;66420;50.246;14.320;2024-03-23T15:29:36;5.13;;;1.10;;
77350;SDS011;66420;50.246;14.320;2024-03-23T15:32:21;3.20;;;1.10;;
77350;SDS011;66420;50.246;14.320;2024-03-23T15:35:05;4.18;;;1.50;;
77350;SDS011;66420;50.246;14.320;2024-03-23T15:37:52;2.72;;;1.00;;
77350;SDS011;66420;50.246;14.320;2024-03-23T15:40:36;3.63;;;1.00;;
77350;SDS011;66420;50.246;14.320;2024-03-23T15:43:21;2.42;;;1.00;;
77350;SDS011;66420;50.246;14.320;2024-03-23T15:46:05;3.42;;;0.85;;
77350;SDS011;66420;50.246;14.320;2024-03-23T15:48:49;3.95;;;1.20;;
77350;SDS011;66420;50.246;14.320;2024-03-23T15:51:35;3.88;;;1.42;;
77350;SDS011;66420;50.246;14.320;2024-03-23T15:54:21;3.25;;;1.08;;
77350;SDS011;66420;50.246;14.320;2024-03-23T15:57:07;3.40;;;1.08;;
77350;SDS011;66420;50.246;14.320;2024-03-23T15:59:51;3.80;;;1.20;;
77350;SDS011;66420;50.246;14.320;2024-03-23T16:02:36;3.50;;;1.23;;
77350;SDS011;66420;50.246;14.320;2024-03-23T16:05:20;3.20;;;1.05;;
77350;SDS011;66420;50.246;14.320;2024-03-23T16:08:06;3.72;;;1.10;;
77350;SDS011;66420;50.246;14.320;2024-03-23T16:10:53;4.03;;;1.30;;
77350;SDS011;66420;50.246;14.320;2024-03-23T16:13:38;4.63;;;1.40;;
77350;SDS011;66420;50.246;14.320;2024-03-23T16:16:24;3.10;;;1.20;;
77350;SDS011;66420;50.246;14.320;2024-03-23T16:19:09;4.30;;;1.27;;
77350;SDS011;66420;50.246;14.320;2024-03-23T16:21:54;4.57;;;1.30;;
77350;SDS011;66420;50.246;14.320;2024-03-23T16:24:40;5.10;;;1.35;;
77350;SDS011;66420;50.246;14.320;2024-03-23T16:27:24;4.72;;;1.40;;
77350;SDS011;66420;50.246;14.320;2024-03-23T16:30:09;5.10;;;1.40;;
77350;SDS011;66420;50.246;14.320;2024-03-23T16:32:54;7.95;;;1.70;;
77350;SDS011;66420;50.246;14.320;2024-03-23T16:35:38;4.53;;;1.40;;
77350;SDS011;66420;50.246;14.320;2024-03-23T16:38:23;5.15;;;1.67;;
77350;SDS011;66420;50.246;14.320;2024-03-23T16:41:08;3.97;;;1.65;;
77350;SDS011;66420;50.246;14.320;2024-03-23T16:43:57;5.63;;;2.40;;
77350;SDS011;66420;50.246;14.320;2024-03-23T16:46:41;5.63;;;1.77;;
77350;SDS011;66420;50.246;14.320;2024-03-23T16:49:27;4.32;;;1.70;;
77350;SDS011;66420;50.246;14.320;2024-03-23T16:52:12;6.80;;;2.92;;
77350;SDS011;66420;50.246;14.320;2024-03-23T16:54:57;8.13;;;2.33;;
77350;SDS011;66420;50.246;14.320;2024-03-23T16:57:41;4.63;;;2.10;;
77350;SDS011;66420;50.246;14.320;2024-03-23T17:00:26;7.13;;;2.88;;
77350;SDS011;66420;50.246;14.320;2024-03-23T17:03:10;9.30;;;3.38;;
77350;SDS011;66420;50.246;14.320;2024-03-23T17:05:55;10.02;;;3.53;;
77350;SDS011;66420;50.246;14.320;2024-03-23T17:11:16;5.68;;;2.35;;
77350;SDS011;66420;50.246;14.320;2024-03-23T17:14:04;5.40;;;2.00;;
77350;SDS011;66420;50.246;14.320;2024-03-23T17:16:48;8.65;;;2.65;;
77350;SDS011;66420;50.246;14.320;2024-03-23T17:19:35;6.25;;;2.25;;
77350;SDS011;66420;50.246;14.320;2024-03-23T17:22:20;6.78;;;2.40;;